Time;durP1;ratioP1;P1;durP2;ratioP2;P2;SDS_P1;SDS_P2;PMS_P1;PMS_P2;Temp;Humidity;BMP_temperature;BMP_pressure;BME280_temperature;BME280_humidity;BME280_pressure;Samples;Min_cycle;Max_cycle;Signal;HPM_P1;HPM_P2
2022/08/15 00:01:09;;;;;;;14.68;9.55;;;;;;;22.18;79.59;99319.73;1768676;79;20988;-74
2022/08/15 00:03:40;;;;;;;12.45;10.20;;;;;;;22.24;79.35;99307.89;1788358;80;21241;-74
2022/08/15 00:06:13;;;;;;;12.10;10.82;;;;;;;22.23;79.52;99312.20;1777771;79;21040;-75
2022/08/15 00:08:45;;;;;;;11.80;10.32;;;;;;;22.19;79.63;99309.18;1766692;79;21041;-72
2022/08/15 00:11:16;;;;;;;10.63;9.58;;;;;;;22.16;79.79;99324.05;1751130;80;21556;-75
2022/08/15 00:13:44;;;;;;;12.70;10.15;;;;;;;22.18;79.99;99316.48;1763662;79;21065;-75
2022/08/15 00:16:13;;;;;;;14.60;10.30;;;;;;;22.25;79.73;99310.08;1754952;80;21209;-75
2022/08/15 00:18:41;;;;;;;12.23;10.75;;;;;;;22.24;79.84;99316.55;1758858;80;20997;-74
2022/08/15 00:21:10;;;;;;;11.28;9.90;;;;;;;22.20;80.00;99302.71;1763134;79;21037;-76
2022/08/15 00:23:39;;;;;;;12.82;9.98;;;;;;;22.17;80.06;99320.28;1771265;79;21025;-74
2022/08/15 00:26:05;;;;;;;11.85;10.68;;;;;;;22.20;80.14;99308.13;1761063;79;21073;-76
2022/08/15 00:28:32;;;;;;;10.82;9.88;;;;;;;22.25;79.98;99325.80;1797067;78;21525;-76
2022/08/15 00:30:59;;;;;;;12.33;11.08;;;;;;;22.21;80.29;99313.80;1801197;78;21042;-76
2022/08/15 00:33:25;;;;;;;12.43;11.10;;;;;;;22.13;80.39;99325.08;1788105;78;21061;-72
2022/08/15 00:35:52;;;;;;;11.70;9.63;;;;;;;22.07;80.64;99316.09;1787776;78;21488;-74
2022/08/15 00:38:22;;;;;;;12.30;9.30;;;;;;;22.06;80.52;99324.45;1794832;78;21596;-76
2022/08/15 00:43:48;;;;;;;11.83;10.58;;;;;;;22.06;80.37;99316.34;1792448;78;21045;-77
2022/08/15 00:46:15;;;;;;;12.15;11.00;;;;;;;21.97;80.58;99312.74;1782687;78;21568;-75
2022/08/15 00:48:41;;;;;;;11.45;10.45;;;;;;;21.94;80.63;99320.03;1796062;79;21009;-76
2022/08/15 00:51:22;;;;;;;11.95;10.28;;;;;;;21.96;80.59;99312.98;1757374;80;21487;-77
2022/08/15 00:53:55;;;;;;;11.65;9.73;;;;;;;22.02;80.52;99312.00;1778142;80;21544;-74
2022/08/15 00:56:24;;;;;;;13.73;11.17;;;;;;;22.00;80.50;99304.68;1759862;79;21040;-72
2022/08/15 00:58:51;;;;;;;11.73;10.70;;;;;;;21.93;80.64;99310.81;1780433;80;21253;-72
2022/08/15 01:01:17;;;;;;;10.78;9.23;;;;;;;21.86;80.83;99304.23;1782107;80;21048;-73
2022/08/15 01:03:47;;;;;;;10.68;9.55;;;;;;;21.86;81.01;99302.06;1775171;79;21527;-74
2022/08/15 01:06:13;;;;;;;12.35;10.10;;;;;;;21.90;80.87;99298.59;1771484;80;21122;-75
2022/08/15 01:08:41;;;;;;;14.28;10.90;;;;;;;21.87;80.83;99296.95;1768241;79;21474;-75
2022/08/15 01:11:25;;;;;;;11.65;10.75;;;;;;;21.82;81.08;99287.42;1771291;79;21014;-75
2022/08/15 01:13:54;;;;;;;11.90;8.73;;;;;;;21.78;81.18;99280.34;1785913;78;21030;-75
2022/08/15 01:16:22;;;;;;;14.53;9.55;;;;;;;21.76;80.91;99286.00;1798383;79;21269;-73
2022/08/15 01:18:49;;;;;;;11.43;10.18;;;;;;;21.79;80.89;99292.27;1812901;78;21346;-75
2022/08/15 01:21:27;;;;;;;10.85;9.75;;;;;;;21.77;81.06;99284.95;1769139;79;21008;-74
2022/08/15 01:24:38;;;;;;;12.60;11.30;;;;;;;21.70;81.06;99282.16;1761913;80;21017;-75
2022/08/15 01:27:05;;;;;;;11.73;8.98;;;;;;;21.63;81.27;99285.58;1773646;79;21266;-75
2022/08/15 01:29:32;;;;;;;13.35;9.68;;;;;;;21.66;81.36;99276.97;1761111;81;21029;-74
2022/08/15 01:31:59;;;;;;;11.57;9.83;;;;;;;21.63;81.32;99271.52;1761800;80;21146;-75
2022/08/15 01:34:25;;;;;;;11.25;10.15;;;;;;;21.57;81.53;99276.58;1762947;80;21088;-74
2022/08/15 01:36:51;;;;;;;10.48;9.28;;;;;;;21.50;81.65;99270.55;1777963;80;21029;-77
2022/08/15 01:39:38;;;;;;;9.33;8.40;;;;;;;21.50;81.70;99268.68;1765116;81;21064;-74
2022/08/15 01:42:21;;;;;;;11.45;10.35;;;;;;;21.57;81.66;99270.64;1760964;80;21022;-75
2022/08/15 01:45:11;;;;;;;10.98;9.95;;;;;;;21.56;81.56;99269.56;1755538;79;21192;-73
2022/08/15 01:47:52;;;;;;;12.43;9.70;;;;;;;21.49;81.69;99274.33;1813321;78;21488;-75
2022/08/15 01:50:26;;;;;;;12.58;9.28;;;;;;;21.40;81.95;99269.34;1790957;78;21056;-75
2022/08/15 01:53:12;;;;;;;10.88;9.70;;;;;;;21.42;81.92;99271.77;1802289;78;21000;-74
2022/08/15 01:55:49;;;;;;;10.95;9.88;;;;;;;21.48;81.84;99272.68;1820693;78;21580;-75
2022/08/15 01:58:17;;;;;;;11.57;10.25;;;;;;;21.42;81.82;99270.41;1818262;78;21591;-74
2022/08/15 02:00:57;;;;;;;11.57;10.48;;;;;;;21.36;82.02;99269.56;1780929;78;21118;-74
2022/08/15 02:03:33;;;;;;;11.10;10.00;;;;;;;21.34;82.14;99266.30;1824367;78;21051;-74
2022/08/15 02:05:53;;;;;;;10.15;9.08;;;;;;;21.38;82.20;99262.02;1821003;78;21039;-77
2022/08/15 02:08:21;;;;;;;10.08;9.05;;;;;;;21.43;82.00;99263.95;1754709;80;21069;-77
2022/08/15 02:10:48;;;;;;;11.30;10.10;;;;;;;21.36;82.06;99264.16;1770568;79;21433;-74
2022/08/15 02:13:16;;;;;;;12.23;10.18;;;;;;;21.29;82.31;99266.22;1770184;81;22278;-77
2022/08/15 02:15:43;;;;;;;9.65;8.20;;;;;;;21.25;82.42;99265.09;1778366;79;22106;-76
2022/08/15 02:18:11;;;;;;;10.85;9.75;;;;;;;21.27;82.42;99265.66;1777799;80;21223;-75
2022/08/15 02:20:38;;;;;;;13.83;10.28;;;;;;;21.30;82.26;99261.08;1773751;79;21020;-77
2022/08/15 02:23:04;;;;;;;11.48;9.45;;;;;;;21.24;82.45;99258.03;1744948;80;21118;-77
2022/08/15 02:25:31;;;;;;;10.28;9.38;;;;;;;21.18;82.65;99264.44;1772984;79;21033;-75
2022/08/15 02:27:58;;;;;;;12.85;9.53;;;;;;;21.13;82.79;99260.31;1768047;79;20961;-77
2022/08/15 02:30:27;;;;;;;12.30;9.68;;;;;;;21.18;82.75;99260.39;1785489;78;21093;-75
2022/08/15 02:32:53;;;;;;;14.87;9.85;;;;;;;21.20;82.69;99261.77;1799625;78;21087;-76
2022/08/15 02:35:20;;;;;;;11.40;10.30;;;;;;;21.20;82.79;99263.66;1761043;81;21544;-74
2022/08/15 02:37:47;;;;;;;12.75;9.38;;;;;;;21.17;82.89;99258.73;1734014;80;21031;-74
2022/08/15 02:40:15;;;;;;;11.60;9.73;;;;;;;21.21;82.85;99258.55;1744699;80;21087;-75
2022/08/15 02:42:44;;;;;;;12.03;10.93;;;;;;;21.28;82.68;99257.81;1785797;78;21092;-76
2022/08/15 02:45:12;;;;;;;11.43;10.43;;;;;;;21.28;82.70;99257.01;1762561;81;21128;-73
2022/08/15 02:47:43;;;;;;;11.95;10.05;;;;;;;21.27;82.72;99258.09;1761252;81;21136;-74
2022/08/15 02:50:13;;;;;;;10.90;9.70;;;;;;;21.25;82.71;99253.44;1752632;79;21052;-73
2022/08/15 02:52:41;;;;;;;11.45;10.00;;;;;;;21.31;82.67;99261.92;1761633;79;21487;-72
2022/08/15 02:55:10;;;;;;;10.58;9.48;;;;;;;21.41;82.48;99263.39;1753363;80;21013;-74
2022/08/15 02:57:37;;;;;;;11.53;10.28;;;;;;;21.39;82.37;99260.94;1735111;82;21045;-73
2022/08/15 03:00:08;;;;;;;13.05;10.90;;;;;;;21.36;82.42;99271.42;1758583;79;21956;-73
2022/08/15 03:02:57;;;;;;;12.55;10.48;;;;;;;21.34;82.43;99271.70;1762089;80;21324;-75
2022/08/15 03:05:28;;;;;;;9.35;8.45;;;;;;;21.40;82.33;99269.34;1761010;79;21533;-74
2022/08/15 03:07:54;;;;;;;14.05;9.20;;;;;;;21.49;82.04;99277.03;1739976;79;21064;-73
2022/08/15 03:10:22;;;;;;;10.65;9.58;;;;;;;21.49;82.01;99272.44;1805009;78;21067;-74
2022/08/15 03:12:55;;;;;;;12.28;10.40;;;;;;;21.48;81.97;99274.03;1816639;78;21249;-74
2022/08/15 03:15:33;;;;;;;10.45;8.98;;;;;;;21.45;81.97;99269.15;1763536;78;21627;-73
2022/08/15 03:17:59;;;;;;;11.40;10.30;;;;;;;21.49;81.99;99265.69;1760298;78;21059;-73
2022/08/15 03:20:26;;;;;;;10.50;9.35;;;;;;;21.57;81.67;99267.94;1776154;78;21009;-74
2022/08/15 03:22:53;;;;;;;12.68;10.35;;;;;;;21.57;81.66;99263.08;1783207;78;21556;-75
2022/08/15 03:25:24;;;;;;;10.72;9.73;;;;;;;21.56;81.68;99271.72;1757825;80;21154;-71
2022/08/15 03:27:50;;;;;;;12.15;9.33;;;;;;;21.55;81.74;99265.21;1801489;78;21497;-72
2022/08/15 03:30:17;;;;;;;13.60;9.98;;;;;;;21.60;81.75;99262.58;1771955;80;21041;-73
2022/08/15 03:32:50;;;;;;;11.12;10.20;;;;;;;21.68;81.52;99263.48;1771484;80;21530;-72
2022/08/15 03:35:18;;;;;;;10.45;9.23;;;;;;;21.69;81.54;99258.88;1761478;81;26646;-73
2022/08/15 03:37:44;;;;;;;11.60;10.48;;;;;;;21.68;81.55;99265.38;1769946;79;21133;-74
2022/08/15 03:40:11;;;;;;;13.85;10.53;;;;;;;21.66;81.84;99260.22;1770137;79;21097;-74
2022/08/15 03:42:38;;;;;;;10.98;9.98;;;;;;;21.70;82.20;99258.63;1766465;79;21005;-75
2022/08/15 03:45:09;;;;;;;13.10;10.50;;;;;;;21.78;82.09;99263.59;1768198;78;21015;-75
2022/08/15 03:47:36;;;;;;;13.30;11.10;;;;;;;21.77;82.29;99256.56;1772306;80;21093;-77
2022/08/15 03:50:05;;;;;;;11.60;10.45;;;;;;;21.70;82.01;99263.23;1769450;79;21236;-77
2022/08/15 03:52:34;;;;;;;11.68;10.68;;;;;;;21.65;82.23;99263.97;1767617;79;20968;-74
2022/08/15 03:55:04;;;;;;;12.37;9.20;;;;;;;21.70;82.16;99264.04;1769000;79;20994;-77
2022/08/15 03:57:31;;;;;;;11.85;10.65;;;;;;;21.77;81.80;99266.56;1788867;79;21050;-75
2022/08/15 03:59:58;;;;;;;11.80;10.70;;;;;;;21.75;81.88;99270.03;1780032;79;21010;-78
2022/08/15 04:02:24;;;;;;;12.10;10.63;;;;;;;21.70;81.91;99266.75;1773107;79;21165;-81
2022/08/15 04:04:51;;;;;;;10.80;9.80;;;;;;;21.63;82.14;99262.06;1766762;79;21070;-77
2022/08/15 04:07:18;;;;;;;14.33;10.70;;;;;;;21.64;82.28;99256.14;1767660;80;21096;-79
2022/08/15 04:09:47;;;;;;;13.88;10.45;;;;;;;21.65;82.10;99257.22;1749010;79;20991;-79
2022/08/15 04:12:30;;;;;;;11.95;10.15;;;;;;;21.62;82.22;99253.69;1772494;79;21549;-78
2022/08/15 04:14:57;;;;;;;15.45;11.38;;;;;;;21.58;82.30;99253.37;1753191;80;21109;-77
2022/08/15 04:17:24;;;;;;;12.58;10.30;;;;;;;21.50;82.93;99249.77;1758945;80;20957;-76
2022/08/15 04:19:52;;;;;;;11.25;10.03;;;;;;;21.56;83.01;99257.41;1767976;80;21044;-75
2022/08/15 04:22:34;;;;;;;16.75;11.70;;;;;;;21.62;83.01;99255.58;1774091;78;21127;-79
2022/08/15 04:25:05;;;;;;;12.82;11.55;;;;;;;21.59;83.09;99250.12;1747532;82;21544;-79
2022/08/15 04:27:31;;;;;;;17.20;10.95;;;;;;;21.53;83.49;99248.44;1747360;81;21084;-76
2022/08/15 04:29:58;;;;;;;11.00;9.90;;;;;;;21.53;83.78;99251.14;1765914;79;21005;-77
2022/08/15 04:32:26;;;;;;;13.58;11.22;;;;;;;21.58;83.79;99256.07;1762133;80;21018;-76
2022/08/15 04:34:54;;;;;;;11.65;10.53;;;;;;;21.58;83.95;99256.61;1747398;80;21061;-75
2022/08/15 04:37:22;;;;;;;11.85;10.70;;;;;;;21.54;84.10;99253.59;1755382;78;21037;-78
2022/08/15 04:39:50;;;;;;;12.33;10.40;;;;;;;21.51;84.33;99250.57;1752156;81;21123;-79
2022/08/15 04:42:20;;;;;;;12.43;11.03;;;;;;;21.58;84.13;99248.50;1783873;79;20995;-78
2022/08/15 04:44:51;;;;;;;12.13;10.88;;;;;;;21.62;84.21;99250.17;1782266;79;21057;-75
2022/08/15 04:47:18;;;;;;;14.45;11.22;;;;;;;21.61;84.35;99249.33;1760632;80;21038;-80
2022/08/15 04:49:44;;;;;;;12.93;11.05;;;;;;;21.61;84.22;99247.98;1751596;80;21986;-75
2022/08/15 04:52:16;;;;;;;12.58;10.38;;;;;;;21.69;83.92;99252.13;1739267;79;21830;-76
2022/08/15 04:54:45;;;;;;;13.35;10.48;;;;;;;21.82;83.65;99247.67;1795185;79;21092;-76
2022/08/15 04:57:13;;;;;;;11.70;10.60;;;;;;;21.88;83.14;99245.84;1773675;80;21469;-77
2022/08/15 04:59:40;;;;;;;13.78;11.80;;;;;;;21.90;82.93;99242.35;1772384;79;21001;-79
2022/08/15 05:02:12;;;;;;;11.90;10.68;;;;;;;21.95;82.61;99246.47;1771336;79;21027;-78
2022/08/15 05:04:39;;;;;;;15.00;10.28;;;;;;;22.06;82.08;99233.84;1772114;79;22264;-76
2022/08/15 05:07:05;;;;;;;11.10;10.05;;;;;;;22.19;81.62;99236.14;1765704;80;21482;-78
2022/08/15 05:09:32;;;;;;;12.63;11.38;;;;;;;22.24;81.16;99234.84;1791326;79;20977;-77
2022/08/15 05:12:00;;;;;;;13.45;12.05;;;;;;;22.27;81.03;99234.88;1779198;80;21022;-76
2022/08/15 05:14:27;;;;;;;13.40;11.05;;;;;;;22.29;80.78;99225.97;1776092;79;21134;-77
2022/08/15 05:16:53;;;;;;;15.20;11.10;;;;;;;22.37;80.32;99224.17;1772713;80;21238;-79
2022/08/15 05:19:21;;;;;;;11.20;10.15;;;;;;;22.46;79.99;99225.30;1770561;80;21121;-78
2022/08/15 05:21:47;;;;;;;12.95;11.68;;;;;;;22.49;79.78;99228.05;1751886;80;20985;-80
2022/08/15 05:24:15;;;;;;;13.45;11.15;;;;;;;22.48;79.58;99229.11;1753804;80;21045;-79
2022/08/15 05:26:42;;;;;;;11.63;10.53;;;;;;;22.49;79.62;99222.09;1751730;81;21048;-79
2022/08/15 05:29:08;;;;;;;11.57;10.38;;;;;;;22.56;79.28;99219.98;1737412;81;22182;-77
2022/08/15 05:31:35;;;;;;;14.87;10.70;;;;;;;22.67;78.78;99221.40;1759818;80;21560;-79
2022/08/15 05:34:03;;;;;;;11.28;10.08;;;;;;;22.70;78.50;99223.60;1760375;79;21049;-81
2022/08/15 05:36:33;;;;;;;11.93;10.60;;;;;;;22.71;78.36;99219.25;1761631;80;21045;-78
2022/08/15 05:39:21;;;;;;;12.53;11.28;;;;;;;22.81;78.12;99223.11;1751553;81;21035;-79
2022/08/15 05:42:28;;;;;;;13.88;10.30;;;;;;;22.91;77.59;99209.66;1747528;81;21414;-80
2022/08/15 05:45:08;;;;;;;12.20;10.18;;;;;;;23.11;77.06;99212.48;1755447;81;21015;-80
2022/08/15 05:48:10;;;;;;;12.15;10.35;;;;;;;23.25;76.53;99216.87;1755712;81;21112;-81
2022/08/15 05:50:52;;;;;;;11.68;9.70;;;;;;;23.30;76.05;99220.16;1751633;81;21094;-78
2022/08/15 05:53:34;;;;;;;12.33;10.63;;;;;;;23.36;75.68;99220.45;1747894;81;21032;-79
2022/08/15 05:56:28;;;;;;;11.85;10.65;;;;;;;23.40;75.23;99220.75;1740509;80;21229;-78
2022/08/15 05:59:09;;;;;;;12.75;9.50;;;;;;;23.42;75.02;99217.23;1704950;80;21091;-78
2022/08/15 06:01:55;;;;;;;12.20;9.93;;;;;;;23.51;74.71;99215.64;1741023;81;21436;-80
2022/08/15 06:04:45;;;;;;;12.15;10.38;;;;;;;23.60;74.60;99219.44;1752965;81;20905;-78
2022/08/15 06:07:15;;;;;;;11.22;10.05;;;;;;;23.62;74.24;99216.47;1746854;81;21570;-78
2022/08/15 06:09:50;;;;;;;12.05;10.88;;;;;;;23.65;74.05;99214.59;1739607;80;21322;-79
2022/08/15 06:12:33;;;;;;;11.10;10.05;;;;;;;23.64;73.98;99222.44;1738992;81;21051;-78
2022/08/15 06:15:23;;;;;;;11.73;10.53;;;;;;;23.64;74.03;99214.30;1753485;80;21041;-78
2022/08/15 06:17:57;;;;;;;11.65;10.45;;;;;;;23.65;73.90;99215.40;1741511;81;21012;-82
2022/08/15 06:20:41;;;;;;;11.40;10.15;;;;;;;23.69;73.73;99199.41;1747224;80;21056;-79
2022/08/15 06:23:36;;;;;;;10.60;9.63;;;;;;;23.74;73.57;99208.37;1747685;81;21223;-81
2022/08/15 06:26:18;;;;;;;12.73;10.82;;;;;;;23.73;73.63;99204.57;1742548;80;21049;-83
2022/08/15 06:29:09;;;;;;;11.33;10.38;;;;;;;23.73;73.72;99203.22;1755419;80;20998;-80
2022/08/15 06:31:39;;;;;;;12.07;11.08;;;;;;;23.75;74.06;99206.47;1774416;78;20911;-82
2022/08/15 06:34:27;;;;;;;12.98;10.93;;;;;;;23.80;73.80;99204.33;1771273;78;20954;-83
2022/08/15 06:37:14;;;;;;;9.95;9.05;;;;;;;23.92;73.50;99208.44;1772075;80;21612;-84
2022/08/15 06:40:15;;;;;;;11.33;10.25;;;;;;;24.09;73.01;99212.81;1758026;80;21013;-84
2022/08/15 06:42:44;;;;;;;11.33;10.23;;;;;;;24.20;72.58;99212.25;1775977;79;22110;-81
2022/08/15 06:45:25;;;;;;;14.78;10.72;;;;;;;24.31;72.07;99200.32;1770572;80;20999;-82
2022/08/15 06:48:03;;;;;;;12.40;10.82;;;;;;;24.38;72.02;99200.03;1769927;79;21044;-81
2022/08/15 06:50:49;;;;;;;14.30;9.93;;;;;;;24.43;71.53;99213.06;1770516;79;21186;-82
2022/08/15 06:53:27;;;;;;;11.48;10.20;;;;;;;24.49;71.47;99236.44;1782319;79;20997;-82
2022/08/15 06:56:04;;;;;;;12.75;10.23;;;;;;;24.56;70.82;99221.79;1746331;81;21025;-81
2022/08/15 06:59:03;;;;;;;11.28;10.00;;;;;;;24.59;69.95;99215.80;1767543;80;21066;-81
2022/08/15 07:02:12;;;;;;;10.18;9.28;;;;;;;24.64;69.82;99210.37;1765146;79;21155;-80
2022/08/15 07:04:59;;;;;;;10.50;9.40;;;;;;;24.72;69.34;99200.30;1771893;79;21427;-80
2022/08/15 07:07:55;;;;;;;10.03;9.10;;;;;;;24.79;69.31;99211.70;1771253;79;21017;-77
2022/08/15 07:10:42;;;;;;;10.53;9.53;;;;;;;24.85;68.89;99213.31;1746683;80;21061;-78
2022/08/15 07:13:21;;;;;;;9.53;8.63;;;;;;;24.89;68.10;99217.66;1752686;79;21052;-79
2022/08/15 07:15:56;;;;;;;9.95;8.70;;;;;;;24.90;67.75;99216.58;1774451;79;21054;-76
2022/08/15 07:18:35;;;;;;;9.55;8.73;;;;;;;24.91;67.75;99212.20;1772914;79;21125;-78
2022/08/15 07:21:12;;;;;;;10.80;8.65;;;;;;;24.93;67.48;99220.09;1769272;79;21089;-80
2022/08/15 07:24:09;;;;;;;10.53;8.48;;;;;;;24.95;67.30;99220.62;1771505;79;21037;-77
2022/08/15 07:27:05;;;;;;;11.60;8.73;;;;;;;24.98;67.24;99229.59;1775256;79;21105;-77
2022/08/15 07:29:41;;;;;;;15.32;8.98;;;;;;;25.00;68.18;99228.77;1778500;79;21053;-77
2022/08/15 07:32:17;;;;;;;11.68;9.70;;;;;;;24.99;68.03;99238.55;1747124;80;21402;-79
2022/08/15 07:35:12;;;;;;;10.78;9.63;;;;;;;24.97;68.26;99228.50;1780239;79;21081;-80
2022/08/15 07:38:03;;;;;;;10.48;9.15;;;;;;;24.96;68.40;99237.77;1773374;79;21069;-83
2022/08/15 07:40:34;;;;;;;10.08;9.05;;;;;;;24.96;68.84;99232.33;1776962;79;21054;-80
2022/08/15 07:43:05;;;;;;;10.28;8.98;;;;;;;24.96;68.70;99240.48;1775940;79;21089;-77
2022/08/15 07:45:36;;;;;;;9.55;8.15;;;;;;;24.94;69.02;99236.67;1773614;79;21168;-81
2022/08/15 07:48:25;;;;;;;10.53;8.88;;;;;;;24.96;68.61;99241.28;1774133;79;21111;-79
2022/08/15 07:51:07;;;;;;;;;;;;;;;25.01;67.86;99233.66;1774978;79;21510;-78
2022/08/15 07:53:35;;;;;;;10.32;8.43;;;;;;;25.12;67.26;99234.70;1775875;79;20179;-81
2022/08/15 07:56:13;;;;;;;9.70;8.60;;;;;;;25.28;67.20;99230.61;1731705;80;21083;-80
2022/08/15 07:58:41;;;;;;;11.65;8.88;;;;;;;25.50;66.88;99224.82;1772917;79;21185;-80
2022/08/15 08:01:16;;;;;;;24.72;10.03;;;;;;;25.74;66.00;99232.31;1745168;80;21533;-78
2022/08/15 08:03:45;;;;;;;10.80;9.28;;;;;;;25.90;64.63;99234.66;1771790;79;21967;-76
2022/08/15 08:06:36;;;;;;;10.43;8.58;;;;;;;25.99;63.71;99237.62;1776389;79;21330;-78
2022/08/15 08:09:17;;;;;;;10.68;8.73;;;;;;;26.07;63.46;99228.04;1774649;79;21022;-78
2022/08/15 08:11:54;;;;;;;9.75;7.97;;;;;;;26.07;63.36;99232.92;1776002;79;21658;-78
2022/08/15 08:14:35;;;;;;;8.70;7.90;;;;;;;26.09;63.31;99234.81;1774984;80;21018;-77
2022/08/15 08:17:28;;;;;;;12.40;8.13;;;;;;;26.05;62.93;99241.92;1772861;80;21065;-78
2022/08/15 08:20:32;;;;;;;10.95;8.93;;;;;;;25.99;62.46;99232.17;1772918;79;20976;-80
2022/08/15 08:23:11;;;;;;;11.55;8.23;;;;;;;25.94;62.72;99228.15;1724389;81;21048;-79
2022/08/15 08:26:00;;;;;;;10.75;8.30;;;;;;;25.94;62.92;99229.51;1781936;78;21511;-79
2022/08/15 08:29:06;;;;;;;10.50;8.03;;;;;;;26.00;62.74;99225.66;1760424;79;22028;-78
2022/08/15 08:31:58;;;;;;;10.25;8.03;;;;;;;26.10;62.46;99222.05;1760014;80;21066;-81
2022/08/15 08:34:57;;;;;;;9.88;8.88;;;;;;;26.23;62.13;99217.32;1757340;80;22236;-79
2022/08/15 08:37:41;;;;;;;10.35;8.15;;;;;;;26.36;61.91;99221.84;1758344;80;21128;-81
2022/08/15 08:44:34;;;;;;;10.45;8.53;;;;;;;26.68;61.25;99232.20;1798946;79;22612;-82
2022/08/15 08:47:26;;;;;;;9.58;8.60;;;;;;;26.71;61.00;99231.61;1769370;80;21698;-85
2022/08/15 08:50:26;;;;;;;10.03;9.03;;;;;;;26.84;60.77;99232.86;1771154;80;21217;-78
2022/08/15 08:53:11;;;;;;;11.75;8.50;;;;;;;26.97;60.58;99221.84;1772839;80;21014;-79
2022/08/15 08:55:54;;;;;;;9.48;8.68;;;;;;;27.13;59.99;99221.91;1766350;80;20993;-79
2022/08/15 08:58:37;;;;;;;9.28;7.78;;;;;;;27.26;59.58;99227.26;1777926;78;21034;-77
2022/08/15 09:01:06;;;;;;;8.90;8.10;;;;;;;27.35;59.08;99217.86;1771664;80;21040;-78
2022/08/15 09:03:38;;;;;;;9.18;8.28;;;;;;;27.53;58.88;99215.73;1769983;80;22250;-78
2022/08/15 09:06:04;;;;;;;10.82;8.40;;;;;;;27.76;58.41;99222.80;1781043;80;21545;-79
2022/08/15 09:08:38;;;;;;;9.48;8.00;;;;;;;28.03;58.10;99231.71;1776167;80;21081;-78
2022/08/15 09:11:09;;;;;;;11.48;8.05;;;;;;;28.34;57.36;99220.30;1777625;80;21520;-77
2022/08/15 09:13:39;;;;;;;8.58;7.78;;;;;;;28.71;56.41;99219.41;1731787;81;21106;-77
2022/08/15 09:16:17;;;;;;;11.03;8.53;;;;;;;29.02;55.52;99221.00;1735196;81;21828;-76
2022/08/15 09:18:59;;;;;;;9.25;8.33;;;;;;;29.21;54.83;99230.50;1709558;81;21069;-80
2022/08/15 09:21:26;;;;;;;9.85;8.40;;;;;;;29.28;54.95;99236.92;1737817;81;21049;-77
2022/08/15 09:23:54;;;;;;;9.88;8.38;;;;;;;29.34;54.42;99235.73;1735814;81;21276;-77
2022/08/15 09:26:41;;;;;;;9.38;8.48;;;;;;;29.26;54.64;99241.09;1702848;83;21490;-80
2022/08/15 09:29:30;;;;;;;8.78;7.97;;;;;;;29.11;54.96;99242.16;1721737;83;21256;-79
2022/08/15 09:32:31;;;;;;;9.90;8.25;;;;;;;28.92;55.54;99238.17;1719701;81;21586;-78
2022/08/15 09:35:23;;;;;;;9.53;8.33;;;;;;;28.80;55.85;99250.40;1717453;82;21597;-79
2022/08/15 09:38:26;;;;;;;9.23;8.38;;;;;;;28.72;56.17;99242.88;1716404;82;21030;-77
2022/08/15 09:41:22;;;;;;;;;;;;;;;28.69;55.96;99234.48;1734082;82;21057;-77
2022/08/15 09:44:19;;;;;;;13.25;7.55;;;;;;;28.69;56.07;99235.30;1697219;81;21117;-76
2022/08/15 09:47:27;;;;;;;9.75;7.95;;;;;;;28.62;55.89;99234.30;1705501;80;21078;-80
2022/08/15 09:50:26;;;;;;;9.15;7.30;;;;;;;28.55;55.87;99239.89;1739075;80;21049;-81
2022/08/15 09:53:17;;;;;;;10.60;7.95;;;;;;;28.42;55.72;99229.17;1745578;80;21107;-79
2022/08/15 09:55:46;;;;;;;7.97;7.12;;;;;;;28.29;56.12;99234.84;1744114;80;21085;-77
2022/08/15 09:58:24;;;;;;;7.72;6.70;;;;;;;28.27;56.17;99216.58;1745869;80;21856;-77
2022/08/15 10:01:03;;;;;;;11.18;7.12;;;;;;;28.29;55.92;99220.38;1704472;83;21002;-76
2022/08/15 10:03:51;;;;;;;8.63;7.65;;;;;;;28.33;56.15;99214.57;1734257;80;21018;-78
2022/08/15 10:06:25;;;;;;;14.47;7.62;;;;;;;28.38;56.20;99211.77;1750219;81;21589;-80
2022/08/15 10:08:57;;;;;;;15.10;7.55;;;;;;;28.40;56.05;99199.42;1736505;80;21128;-76
2022/08/15 10:11:38;;;;;;;11.05;7.78;;;;;;;28.40;55.99;99202.16;1745794;80;21158;-79
2022/08/15 10:14:08;;;;;;;9.05;6.87;;;;;;;28.37;56.10;99195.91;1734517;80;21063;-78
2022/08/15 10:16:41;;;;;;;10.00;7.47;;;;;;;28.34;56.32;99192.99;1707041;83;21028;-78
2022/08/15 10:19:29;;;;;;;7.95;7.15;;;;;;;28.28;56.49;99186.80;1746950;80;21072;-78
2022/08/15 10:21:58;;;;;;;11.18;7.58;;;;;;;28.23;56.77;99190.97;1743305;80;21098;-79
2022/08/15 10:24:36;;;;;;;9.45;7.45;;;;;;;28.16;56.77;99194.63;1745245;80;21146;-83
2022/08/15 10:27:12;;;;;;;8.75;7.45;;;;;;;28.05;56.80;99202.19;1737868;81;20979;-83
2022/08/15 10:29:49;;;;;;;8.73;7.60;;;;;;;27.88;56.97;99204.61;1742123;80;21013;-83
2022/08/15 10:32:26;;;;;;;14.83;8.25;;;;;;;27.74;57.29;99194.97;1741966;81;21219;-84
2022/08/15 10:35:07;;;;;;;10.25;7.70;;;;;;;27.60;57.79;99195.73;1682625;85;21066;-80
2022/08/15 10:37:51;;;;;;;12.98;7.72;;;;;;;27.47;58.12;99189.63;1717305;82;21134;-80
2022/08/15 10:40:31;;;;;;;11.15;6.60;;;;;;;27.36;58.46;99190.87;1738643;78;21007;-80
2022/08/15 10:43:17;;;;;;;12.18;7.20;;;;;;;27.26;58.96;99186.36;1726010;81;20997;-81
2022/08/15 10:46:01;;;;;;;8.43;7.00;;;;;;;27.17;59.35;99177.16;1746895;80;21084;-77
2022/08/15 10:48:58;;;;;;;15.65;7.50;;;;;;;27.07;59.67;99174.81;1748935;81;21014;-76
2022/08/15 10:51:47;;;;;;;12.70;7.33;;;;;;;27.00;59.99;99169.45;1754660;81;21175;-81
2022/08/15 10:54:42;;;;;;;9.68;7.72;;;;;;;26.90;60.44;99175.84;1737851;80;21116;-82
2022/08/15 10:57:08;;;;;;;12.73;8.18;;;;;;;26.83;60.32;99178.09;1680741;83;21088;-79
2022/08/15 10:59:40;;;;;;;16.17;6.80;;;;;;;26.80;60.43;99178.13;1725250;81;21576;-79
2022/08/15 11:02:21;;;;;;;11.93;7.40;;;;;;;26.75;60.34;99173.28;1748177;80;20993;-77
2022/08/15 11:04:48;;;;;;;12.03;7.47;;;;;;;26.68;60.60;99185.90;1745643;80;21977;-79
2022/08/15 11:07:23;;;;;;;13.00;7.75;;;;;;;26.62;60.63;99181.61;1740861;80;21097;-76
2022/08/15 11:09:54;;;;;;;17.82;7.60;;;;;;;26.56;60.12;99177.25;1741567;80;22489;-77
2022/08/15 11:12:22;;;;;;;9.98;7.28;;;;;;;26.49;60.21;99181.69;1741137;80;21061;-77
2022/08/15 11:14:53;;;;;;;11.05;7.15;;;;;;;26.48;61.19;99168.63;1739207;80;21283;-80
2022/08/15 11:17:23;;;;;;;8.20;6.90;;;;;;;26.47;62.08;99177.08;1745866;80;21281;-77
2022/08/15 11:19:51;;;;;;;11.10;7.70;;;;;;;26.45;62.86;99177.92;1748199;80;21659;-79
2022/08/15 11:22:33;;;;;;;13.08;7.70;;;;;;;26.44;62.56;99158.58;1683678;83;21145;-78
2022/08/15 11:25:06;;;;;;;11.12;6.97;;;;;;;26.46;63.16;99156.38;1741123;80;21049;-86
2022/08/15 11:27:33;;;;;;;9.98;8.15;;;;;;;26.46;63.96;99168.63;1738248;81;21071;-85
2022/08/15 11:30:00;;;;;;;12.88;9.05;;;;;;;26.46;63.70;99158.58;1728070;81;21171;-85
2022/08/15 11:32:36;;;;;;;12.70;9.35;;;;;;;26.43;63.31;99159.14;1743431;80;21063;-84
2022/08/15 11:35:29;;;;;;;10.15;7.95;;;;;;;26.38;63.62;99158.38;1748934;80;21059;-84
2022/08/15 11:38:00;;;;;;;19.42;8.25;;;;;;;26.32;63.52;99169.05;1748566;80;21057;-85
2022/08/15 11:40:38;;;;;;;10.60;7.58;;;;;;;26.25;63.92;99169.37;1751721;80;21538;-84
2022/08/15 11:43:06;;;;;;;8.73;6.65;;;;;;;26.19;63.75;99177.31;1727203;81;21073;-84
2022/08/15 11:45:41;;;;;;;12.10;7.53;;;;;;;26.11;63.86;99189.62;1751783;80;21093;-83
2022/08/15 11:48:16;;;;;;;9.60;7.10;;;;;;;26.02;64.06;99184.52;1755451;81;21041;-87
2022/08/15 11:51:03;;;;;;;10.25;7.28;;;;;;;25.94;64.24;99187.86;1747451;81;21465;-86
2022/08/15 11:53:43;;;;;;;13.40;7.80;;;;;;;25.83;65.58;99185.19;1744954;80;21053;-85
2022/08/15 11:56:12;;;;;;;16.32;6.85;;;;;;;25.73;66.56;99193.95;1752591;80;21155;-83
2022/08/15 11:58:44;;;;;;;13.32;7.65;;;;;;;25.61;66.66;99193.77;1748220;81;21040;-85
2022/08/15 12:01:28;;;;;;;8.95;7.47;;;;;;;25.49;66.45;99198.70;1732458;81;21576;-84
2022/08/15 12:04:07;;;;;;;10.20;7.20;;;;;;;25.41;67.26;99200.66;1705731;83;21082;-83
2022/08/15 12:06:37;;;;;;;8.73;7.08;;;;;;;25.28;68.33;99197.47;1754648;81;20983;-84
2022/08/15 12:09:10;;;;;;;9.38;6.53;;;;;;;25.27;69.21;99186.31;1745363;81;21144;-85
2022/08/15 12:11:47;;;;;;;11.07;6.53;;;;;;;25.34;69.22;99194.70;1739766;80;21022;-83